Create Tblcommutelog Verified Points Advance Search
| # | Trip ID | Id Commuter | Trip Date | Trip Num | Current Lat | Current Lng | Delta Distance | Current Time | Activity | Activity Confidence | Current Speed | |
|---|---|---|---|---|---|---|---|---|---|---|---|---|
| 72741 | 260224_746083_16423284_0630 | 746083 | (not set) | (not set) | 38.805378872861 | -77.085010254285 | 14.1112 | 2026-02-24 06:58:55 | unknown | 100 | 8.7977326168784 | |
| 72742 | 260224_792009_16493277_0657 | 792009 | (not set) | (not set) | 38.841077115512 | -77.084446272835 | 1.999 | 2026-02-24 06:59:01 | in_vehicle | 100 | 13.017783221723 | |
| 72743 | 260224_786880_16464305_0649 | 786880 | (not set) | (not set) | 38.952173637988 | -77.35753014974 | 5.8805 | 2026-02-24 06:59:08 | in_vehicle | 100 | 12.633329458993 | |
| 72744 | 260224_731669_16507744_0649 | 731669 | (not set) | (not set) | 38.737527260035 | -77.55270578272 | 3.9457 | 2026-02-24 06:59:11 | in_vehicle | 100 | 9.9198011569376 | |
| 72745 | 260224_788116_16505268_0631 | 788116 | (not set) | (not set) | 38.850338649454 | -77.410364438101 | 17.175 | 2026-02-24 06:54:07 | in_vehicle | 100 | 15.507791894284 | |
| 72746 | 260224_762844_16460442_0630 | 762844 | (not set) | (not set) | 39.061779759035 | -76.731776404625 | 19.9523 | 2026-02-24 06:54:14 | in_vehicle | 100 | 23.581320911602 | |
| 72747 | 260224_791516_16516989_0653 | 791516 | (not set) | (not set) | 39.308703815876 | -76.613954778392 | 0 | 2026-02-24 06:54:20 | still | 100 | -0.44703925898772 | |
| 72748 | 260224_772581_16430940_0651 | 772581 | (not set) | (not set) | 38.921593205437 | -76.877341712039 | 0.7421 | 2026-02-24 06:54:27 | in_vehicle | 100 | 5.7042209446834 | |
| 72749 | 260224_788084_16449863_0627 | 788084 | (not set) | (not set) | 39.266988021046 | -76.609695047263 | 23.7098 | 2026-02-24 06:54:33 | in_vehicle | 100 | 13.589993473227 | |
| 72750 | 260224_790397_16483285_0631 | 790397 | (not set) | (not set) | 38.391852397087 | -77.37273019125 | 9.062 | 2026-02-24 06:54:41 | in_vehicle | 100 | 8.4401012096882 | |
| 72751 | 260224_746083_16423284_0630 | 746083 | (not set) | (not set) | 38.78923907572 | -77.154921553026 | 9.8894 | 2026-02-24 06:54:45 | unknown | 100 | 5.4449381744705 | |
| 72752 | 260224_113832_16457490_0629 | 113832 | (not set) | (not set) | 38.948152257337 | -77.079647709257 | 12.9534 | 2026-02-24 06:54:52 | in_vehicle | 100 | -0.44703925898772 | |
| 72753 | 260224_791977_16661174_0654 | 791977 | (not set) | (not set) | 38.994041317568 | -77.027599005507 | 0 | 2026-02-24 06:54:56 | unknown | 100 | -0.44703925898772 | |
| 72754 | 260224_779684_16420702_0646 | 779684 | (not set) | (not set) | 39.216743994339 | -77.053413486496 | 6.2738 | 2026-02-24 06:55:02 | in_vehicle | 100 | 9.8169821273704 | |
| 72755 | 260224_772581_16430940_0651 | 772581 | (not set) | (not set) | 38.927040254027 | -76.873595834612 | 1.1687 | 2026-02-24 06:55:06 | in_vehicle | 100 | 8.7887918316987 | |
| 72756 | 260224_786132_16505268_0629 | 786132 | (not set) | (not set) | 38.795518320565 | -77.062364615616 | 27.2201 | 2026-02-24 06:55:13 | still | 33 | 12.838967518127 | |
| 72757 | 260224_788116_16505268_0631 | 788116 | (not set) | (not set) | 38.855587075414 | -77.381841149086 | 18.7556 | 2026-02-24 06:55:19 | in_vehicle | 100 | 15.816248982986 | |
| 72758 | 260224_786026_16514421_0655 | 786026 | (not set) | (not set) | 38.961568136601 | -76.936121049902 | 0 | 2026-02-24 06:55:24 | unknown | 100 | -0.44703925898772 | |
| 72759 | 260224_765830_16503560_0630 | 765830 | (not set) | (not set) | 38.887056762302 | -77.095271002039 | 8.1588 | 2026-02-24 06:55:30 | in_vehicle | 100 | -0.44703925898772 | |
| 72760 | 260224_786026_16514421_0655 | 786026 | (not set) | (not set) | 38.961568136601 | -76.936121049902 | 0 | 2026-02-24 06:55:36 | still | 33 | -0.44703925898772 |